sensor_id;sensor_type;location;lat;lon;timestamp;P1;durP1;ratioP1;P2;durP2;ratioP2
19727;SDS011;10015;52.530;13.390;2022-08-07T05:31:41;4.83;;;2.13;;
19727;SDS011;10015;52.530;13.390;2022-08-07T05:34:13;3.73;;;2.13;;
19727;SDS011;10015;52.530;13.390;2022-08-07T05:36:47;4.00;;;2.13;;
19727;SDS011;10015;52.530;13.390;2022-08-07T05:39:22;4.07;;;2.23;;
19727;SDS011;10015;52.530;13.390;2022-08-07T05:41:52;6.53;;;2.30;;
19727;SDS011;10015;52.530;13.390;2022-08-07T05:44:19;4.57;;;1.90;;
19727;SDS011;10015;52.530;13.390;2022-08-07T05:46:49;4.07;;;1.53;;
19727;SDS011;10015;52.530;13.390;2022-08-07T05:49:20;3.67;;;1.90;;
19727;SDS011;10015;52.530;13.390;2022-08-07T05:51:47;3.87;;;1.97;;
19727;SDS011;10015;52.530;13.390;2022-08-07T05:54:17;3.73;;;1.83;;
19727;SDS011;10015;52.530;13.390;2022-08-07T05:56:44;2.10;;;1.77;;
19727;SDS011;10015;52.530;13.390;2022-08-07T05:59:14;3.00;;;1.80;;
19727;SDS011;10015;52.530;13.390;2022-08-07T06:01:44;2.53;;;1.60;;
19727;SDS011;10015;52.530;13.390;2022-08-07T06:04:10;3.97;;;1.70;;
19727;SDS011;10015;52.530;13.390;2022-08-07T06:06:40;4.17;;;1.63;;
19727;SDS011;10015;52.530;13.390;2022-08-07T06:09:08;2.93;;;1.67;;
19727;SDS011;10015;52.530;13.390;2022-08-07T06:11:37;3.33;;;1.53;;
19727;SDS011;10015;52.530;13.390;2022-08-07T06:14:04;2.47;;;1.50;;
19727;SDS011;10015;52.530;13.390;2022-08-07T06:16:31;1.53;;;1.40;;
19727;SDS011;10015;52.530;13.390;2022-08-07T06:19:00;1.87;;;1.37;;
19727;SDS011;10015;52.530;13.390;2022-08-07T06:21:27;1.97;;;1.43;;
19727;SDS011;10015;52.530;13.390;2022-08-07T06:23:55;2.80;;;1.40;;
19727;SDS011;10015;52.530;13.390;2022-08-07T06:26:22;4.80;;;1.83;;
19727;SDS011;10015;52.530;13.390;2022-08-07T06:31:20;4.57;;;1.40;;
19727;SDS011;10015;52.530;13.390;2022-08-07T06:33:46;3.60;;;1.50;;
19727;SDS011;10015;52.530;13.390;2022-08-07T06:36:13;3.20;;;1.30;;
19727;SDS011;10015;52.530;13.390;2022-08-07T06:38:52;1.97;;;1.27;;
19727;SDS011;10015;52.530;13.390;2022-08-07T06:41:22;3.40;;;1.50;;
19727;SDS011;10015;52.530;13.390;2022-08-07T06:44:01;2.80;;;1.40;;
19727;SDS011;10015;52.530;13.390;2022-08-07T06:46:32;2.60;;;1.60;;
19727;SDS011;10015;52.530;13.390;2022-08-07T06:48:58;2.33;;;1.70;;
19727;SDS011;10015;52.530;13.390;2022-08-07T06:51:27;3.63;;;1.87;;
19727;SDS011;10015;52.530;13.390;2022-08-07T06:53:57;2.63;;;1.73;;
19727;SDS011;10015;52.530;13.390;2022-08-07T06:56:30;3.85;;;2.00;;
19727;SDS011;10015;52.530;13.390;2022-08-07T06:59:23;2.22;;;1.63;;
19727;SDS011;10015;52.530;13.390;2022-08-07T07:01:59;3.90;;;1.70;;
19727;SDS011;10015;52.530;13.390;2022-08-07T07:04:26;4.30;;;1.70;;
19727;SDS011;10015;52.530;13.390;2022-08-07T07:06:55;2.90;;;1.75;;
19727;SDS011;10015;52.530;13.390;2022-08-07T07:09:22;2.10;;;1.73;;
19727;SDS011;10015;52.530;13.390;2022-08-07T07:15:15;3.35;;;1.55;;
19727;SDS011;10015;52.530;13.390;2022-08-07T07:17:34;2.25;;;1.30;;
19727;SDS011;10015;52.530;13.390;2022-08-07T07:20:22;2.83;;;1.80;;
19727;SDS011;10015;52.530;13.390;2022-08-07T07:22:51;3.70;;;1.70;;
19727;SDS011;10015;52.530;13.390;2022-08-07T07:25:17;2.92;;;1.50;;
19727;SDS011;10015;52.530;13.390;2022-08-07T07:27:52;3.45;;;1.70;;
19727;SDS011;10015;52.530;13.390;2022-08-07T07:30:28;5.57;;;1.90;;
19727;SDS011;10015;52.530;13.390;2022-08-07T07:33:00;2.53;;;1.30;;
19727;SDS011;10015;52.530;13.390;2022-08-07T07:35:27;4.30;;;1.52;;
19727;SDS011;10015;52.530;13.390;2022-08-07T07:37:56;2.72;;;1.60;;
19727;SDS011;10015;52.530;13.390;2022-08-07T07:40:24;2.20;;;1.60;;
19727;SDS011;10015;52.530;13.390;2022-08-07T07:42:53;2.08;;;1.50;;
19727;SDS011;10015;52.530;13.390;2022-08-07T07:45:22;5.05;;;1.42;;
19727;SDS011;10015;52.530;13.390;2022-08-07T07:47:53;2.63;;;1.50;;
19727;SDS011;10015;52.530;13.390;2022-08-07T07:50:22;2.10;;;1.60;;
19727;SDS011;10015;52.530;13.390;2022-08-07T07:52:49;3.33;;;1.58;;
19727;SDS011;10015;52.530;13.390;2022-08-07T07:55:17;2.05;;;1.27;;
19727;SDS011;10015;52.530;13.390;2022-08-07T07:57:45;2.97;;;1.55;;
19727;SDS011;10015;52.530;13.390;2022-08-07T08:00:14;3.88;;;1.50;;
19727;SDS011;10015;52.530;13.390;2022-08-07T08:02:40;3.72;;;1.38;;
19727;SDS011;10015;52.530;13.390;2022-08-07T08:05:08;3.15;;;1.40;;
19727;SDS011;10015;52.530;13.390;2022-08-07T08:07:36;2.60;;;1.50;;
19727;SDS011;10015;52.530;13.390;2022-08-07T08:10:03;8.13;;;3.30;;
19727;SDS011;10015;52.530;13.390;2022-08-07T08:12:32;3.33;;;1.90;;
19727;SDS011;10015;52.530;13.390;2022-08-07T08:14:59;3.97;;;1.63;;
19727;SDS011;10015;52.530;13.390;2022-08-07T08:17:25;2.83;;;1.50;;
19727;SDS011;10015;52.530;13.390;2022-08-07T08:19:54;2.97;;;1.63;;
19727;SDS011;10015;52.530;13.390;2022-08-07T08:22:24;1.48;;;1.20;;
19727;SDS011;10015;52.530;13.390;2022-08-07T08:25:09;3.15;;;1.40;;
19727;SDS011;10015;52.530;13.390;2022-08-07T08:27:55;3.00;;;1.40;;
19727;SDS011;10015;52.530;13.390;2022-08-07T08:30:22;4.80;;;2.25;;
19727;SDS011;10015;52.530;13.390;2022-08-07T08:32:53;2.97;;;1.70;;
19727;SDS011;10015;52.530;13.390;2022-08-07T08:35:27;1.63;;;1.35;;
19727;SDS011;10015;52.530;13.390;2022-08-07T08:37:58;4.88;;;1.52;;
19727;SDS011;10015;52.530;13.390;2022-08-07T08:40:30;2.63;;;1.35;;
19727;SDS011;10015;52.530;13.390;2022-08-07T08:43:11;2.63;;;1.42;;
19727;SDS011;10015;52.530;13.390;2022-08-07T08:45:54;2.88;;;1.25;;
19727;SDS011;10015;52.530;13.390;2022-08-07T08:51:18;3.00;;;1.60;;
19727;SDS011;10015;52.530;13.390;2022-08-07T08:56:36;3.60;;;1.65;;
19727;SDS011;10015;52.530;13.390;2022-08-07T08:59:14;1.52;;;1.20;;
19727;SDS011;10015;52.530;13.390;2022-08-07T09:04:53;3.33;;;1.67;;
19727;SDS011;10015;52.530;13.390;2022-08-07T09:21:27;3.90;;;1.40;;
19727;SDS011;10015;52.530;13.390;2022-08-07T09:37:48;2.92;;;1.17;;
19727;SDS011;10015;52.530;13.390;2022-08-07T09:40:23;1.80;;;1.30;;
19727;SDS011;10015;52.530;13.390;2022-08-07T09:46:25;4.28;;;1.42;;
19727;SDS011;10015;52.530;13.390;2022-08-07T09:54:55;3.35;;;1.40;;
19727;SDS011;10015;52.530;13.390;2022-08-07T10:00:15;2.70;;;1.60;;
19727;SDS011;10015;52.530;13.390;2022-08-07T10:14:19;1.42;;;1.15;;
19727;SDS011;10015;52.530;13.390;2022-08-07T10:28:11;3.60;;;1.50;;
19727;SDS011;10015;52.530;13.390;2022-08-07T10:33:58;2.00;;;1.10;;
19727;SDS011;10015;52.530;13.390;2022-08-07T10:39:14;2.55;;;1.35;;
19727;SDS011;10015;52.530;13.390;2022-08-07T10:41:45;2.50;;;1.15;;
19727;SDS011;10015;52.530;13.390;2022-08-07T10:44:26;3.90;;;1.38;;
19727;SDS011;10015;52.530;13.390;2022-08-07T10:47:17;2.13;;;1.50;;
19727;SDS011;10015;52.530;13.390;2022-08-07T10:55:38;3.38;;;1.20;;
19727;SDS011;10015;52.530;13.390;2022-08-07T10:58:17;2.83;;;1.10;;
19727;SDS011;10015;52.530;13.390;2022-08-07T11:01:02;0.98;;;0.93;;
19727;SDS011;10015;52.530;13.390;2022-08-07T11:03:36;5.20;;;1.30;;
19727;SDS011;10015;52.530;13.390;2022-08-07T11:09:00;1.38;;;1.20;;
19727;SDS011;10015;52.530;13.390;2022-08-07T11:11:33;5.00;;;1.10;;
19727;SDS011;10015;52.530;13.390;2022-08-07T11:17:07;1.75;;;1.25;;
19727;SDS011;10015;52.530;13.390;2022-08-07T11:22:28;4.72;;;1.15;;
19727;SDS011;10015;52.530;13.390;2022-08-07T11:25:02;2.63;;;1.10;;
19727;SDS011;10015;52.530;13.390;2022-08-07T11:28:33;2.20;;;1.02;;
19727;SDS011;10015;52.530;13.390;2022-08-07T11:30:32;2.25;;;1.23;;
19727;SDS011;10015;52.530;13.390;2022-08-07T11:38:36;1.75;;;1.25;;
19727;SDS011;10015;52.530;13.390;2022-08-07T11:41:14;2.65;;;1.10;;
19727;SDS011;10015;52.530;13.390;2022-08-07T11:56:09;2.25;;;1.15;;
19727;SDS011;10015;52.530;13.390;2022-08-07T11:59:11;1.75;;;1.10;;
19727;SDS011;10015;52.530;13.390;2022-08-07T12:08:15;2.83;;;1.17;;
19727;SDS011;10015;52.530;13.390;2022-08-07T12:11:08;1.77;;;0.90;;
19727;SDS011;10015;52.530;13.390;2022-08-07T12:16:15;2.55;;;1.20;;
19727;SDS011;10015;52.530;13.390;2022-08-07T12:18:54;1.13;;;1.00;;
19727;SDS011;10015;52.530;13.390;2022-08-07T12:21:41;2.40;;;1.23;;
19727;SDS011;10015;52.530;13.390;2022-08-07T12:27:34;1.85;;;1.10;;
19727;SDS011;10015;52.530;13.390;2022-08-07T12:30:05;1.23;;;1.08;;
19727;SDS011;10015;52.530;13.390;2022-08-07T12:32:35;1.70;;;1.10;;
19727;SDS011;10015;52.530;13.390;2022-08-07T12:35:04;3.90;;;1.05;;
19727;SDS011;10015;52.530;13.390;2022-08-07T12:37:33;1.95;;;1.20;;
19727;SDS011;10015;52.530;13.390;2022-08-07T12:40:02;2.15;;;0.90;;
19727;SDS011;10015;52.530;13.390;2022-08-07T12:42:31;2.85;;;1.13;;
19727;SDS011;10015;52.530;13.390;2022-08-07T12:45:04;3.17;;;1.38;;
19727;SDS011;10015;52.530;13.390;2022-08-07T12:47:55;1.05;;;0.95;;
19727;SDS011;10015;52.530;13.390;2022-08-07T12:56:08;2.05;;;0.90;;
19727;SDS011;10015;52.530;13.390;2022-08-07T12:58:55;1.80;;;1.13;;
19727;SDS011;10015;52.530;13.390;2022-08-07T13:18:05;3.05;;;1.50;;
19727;SDS011;10015;52.530;13.390;2022-08-07T13:20:48;2.30;;;1.42;;
19727;SDS011;10015;52.530;13.390;2022-08-07T13:23:25;4.50;;;1.40;;
19727;SDS011;10015;52.530;13.390;2022-08-07T13:26:00;3.10;;;1.58;;
19727;SDS011;10015;52.530;13.390;2022-08-07T13:28:36;2.92;;;1.25;;
19727;SDS011;10015;52.530;13.390;2022-08-07T13:31:15;3.75;;;1.38;;
19727;SDS011;10015;52.530;13.390;2022-08-07T13:33:53;5.45;;;1.40;;
19727;SDS011;10015;52.530;13.390;2022-08-07T13:36:29;2.72;;;1.20;;
19727;SDS011;10015;52.530;13.390;2022-08-07T13:39:10;2.40;;;1.23;;
19727;SDS011;10015;52.530;13.390;2022-08-07T13:41:49;4.45;;;1.45;;
19727;SDS011;10015;52.530;13.390;2022-08-07T13:44:23;2.17;;;1.40;;
19727;SDS011;10015;52.530;13.390;2022-08-07T13:46:54;2.63;;;1.67;;
19727;SDS011;10015;52.530;13.390;2022-08-07T13:49:23;2.47;;;1.40;;
19727;SDS011;10015;52.530;13.390;2022-08-07T13:51:51;2.42;;;1.50;;
19727;SDS011;10015;52.530;13.390;2022-08-07T13:54:19;4.57;;;1.50;;
19727;SDS011;10015;52.530;13.390;2022-08-07T13:56:52;2.97;;;1.50;;
19727;SDS011;10015;52.530;13.390;2022-08-07T13:59:29;1.40;;;1.30;;
19727;SDS011;10015;52.530;13.390;2022-08-07T14:02:04;3.22;;;1.60;;
19727;SDS011;10015;52.530;13.390;2022-08-07T14:04:35;3.45;;;1.50;;
19727;SDS011;10015;52.530;13.390;2022-08-07T14:07:08;3.50;;;1.42;;
19727;SDS011;10015;52.530;13.390;2022-08-07T14:09:38;3.65;;;1.40;;
19727;SDS011;10015;52.530;13.390;2022-08-07T14:12:21;2.45;;;1.42;;
19727;SDS011;10015;52.530;13.390;2022-08-07T14:14:51;3.15;;;1.75;;
19727;SDS011;10015;52.530;13.390;2022-08-07T14:17:23;1.60;;;1.45;;
19727;SDS011;10015;52.530;13.390;2022-08-07T14:19:51;1.48;;;1.10;;
19727;SDS011;10015;52.530;13.390;2022-08-07T14:22:22;1.85;;;1.30;;
19727;SDS011;10015;52.530;13.390;2022-08-07T14:25:14;5.38;;;1.75;;
19727;SDS011;10015;52.530;13.390;2022-08-07T14:27:41;2.65;;;1.33;;
19727;SDS011;10015;52.530;13.390;2022-08-07T14:30:11;3.15;;;1.60;;
19727;SDS011;10015;52.530;13.390;2022-08-07T14:32:42;2.28;;;1.30;;
19727;SDS011;10015;52.530;13.390;2022-08-07T14:35:10;1.77;;;1.30;;
19727;SDS011;10015;52.530;13.390;2022-08-07T14:37:47;3.28;;;1.20;;
19727;SDS011;10015;52.530;13.390;2022-08-07T14:40:17;1.75;;;1.30;;
19727;SDS011;10015;52.530;13.390;2022-08-07T14:42:51;2.08;;;1.20;;
19727;SDS011;10015;52.530;13.390;2022-08-07T14:45:25;2.65;;;1.20;;
19727;SDS011;10015;52.530;13.390;2022-08-07T14:47:54;2.22;;;1.50;;
19727;SDS011;10015;52.530;13.390;2022-08-07T14:50:22;3.40;;;1.40;;
19727;SDS011;10015;52.530;13.390;2022-08-07T14:52:50;1.63;;;1.02;;
19727;SDS011;10015;52.530;13.390;2022-08-07T14:55:18;4.68;;;1.30;;
19727;SDS011;10015;52.530;13.390;2022-08-07T14:57:46;2.50;;;1.42;;
19727;SDS011;10015;52.530;13.390;2022-08-07T15:00:15;3.70;;;1.40;;
19727;SDS011;10015;52.530;13.390;2022-08-07T15:02:44;1.42;;;1.00;;
19727;SDS011;10015;52.530;13.390;2022-08-07T15:05:15;1.77;;;1.20;;
19727;SDS011;10015;52.530;13.390;2022-08-07T15:07:46;1.67;;;1.25;;
19727;SDS011;10015;52.530;13.390;2022-08-07T15:10:17;3.35;;;1.20;;
19727;SDS011;10015;52.530;13.390;2022-08-07T15:12:44;3.25;;;1.17;;
19727;SDS011;10015;52.530;13.390;2022-08-07T15:15:14;4.32;;;1.30;;
19727;SDS011;10015;52.530;13.390;2022-08-07T15:17:51;5.78;;;1.30;;
19727;SDS011;10015;52.530;13.390;2022-08-07T15:20:23;1.42;;;1.20;;
19727;SDS011;10015;52.530;13.390;2022-08-07T15:22:54;1.80;;;1.25;;
19727;SDS011;10015;52.530;13.390;2022-08-07T15:25:23;1.95;;;1.13;;
19727;SDS011;10015;52.530;13.390;2022-08-07T15:27:57;2.50;;;1.52;;
19727;SDS011;10015;52.530;13.390;2022-08-07T15:30:26;4.00;;;1.65;;
19727;SDS011;10015;52.530;13.390;2022-08-07T15:32:53;2.55;;;1.52;;
19727;SDS011;10015;52.530;13.390;2022-08-07T15:35:22;3.22;;;1.63;;
19727;SDS011;10015;52.530;13.390;2022-08-07T15:37:50;2.40;;;1.30;;
19727;SDS011;10015;52.530;13.390;2022-08-07T15:40:19;2.22;;;1.40;;
19727;SDS011;10015;52.530;13.390;2022-08-07T15:42:48;1.92;;;1.10;;
19727;SDS011;10015;52.530;13.390;2022-08-07T15:47:49;2.60;;;1.13;;
19727;SDS011;10015;52.530;13.390;2022-08-07T15:50:19;1.20;;;1.10;;
19727;SDS011;10015;52.530;13.390;2022-08-07T15:52:51;2.35;;;1.25;;
19727;SDS011;10015;52.530;13.390;2022-08-07T15:55:33;3.17;;;1.13;;
19727;SDS011;10015;52.530;13.390;2022-08-07T15:58:01;4.32;;;1.20;;
19727;SDS011;10015;52.530;13.390;2022-08-07T16:00:30;1.70;;;1.17;;
19727;SDS011;10015;52.530;13.390;2022-08-07T16:03:05;1.60;;;1.13;;
19727;SDS011;10015;52.530;13.390;2022-08-07T16:05:50;1.08;;;0.95;;
19727;SDS011;10015;52.530;13.390;2022-08-07T16:08:22;2.47;;;1.40;;
19727;SDS011;10015;52.530;13.390;2022-08-07T16:10:56;4.05;;;1.33;;
19727;SDS011;10015;52.530;13.390;2022-08-07T16:13:50;1.77;;;1.20;;
19727;SDS011;10015;52.530;13.390;2022-08-07T16:16:43;1.10;;;1.00;;
19727;SDS011;10015;52.530;13.390;2022-08-07T16:27:46;2.90;;;1.40;;
19727;SDS011;10015;52.530;13.390;2022-08-07T16:30:22;3.80;;;1.50;;
19727;SDS011;10015;52.530;13.390;2022-08-07T16:33:02;3.42;;;1.20;;
19727;SDS011;10015;52.530;13.390;2022-08-07T16:41:34;5.10;;;1.33;;
19727;SDS011;10015;52.530;13.390;2022-08-07T16:44:49;1.75;;;1.17;;
19727;SDS011;10015;52.530;13.390;2022-08-07T16:55:39;1.40;;;1.10;;
19727;SDS011;10015;52.530;13.390;2022-08-07T16:58:18;3.13;;;1.70;;
19727;SDS011;10015;52.530;13.390;2022-08-07T17:00:59;1.98;;;1.52;;
19727;SDS011;10015;52.530;13.390;2022-08-07T17:09:25;4.53;;;2.67;;
19727;SDS011;10015;52.530;13.390;2022-08-07T17:12:15;3.80;;;1.50;;
19727;SDS011;10015;52.530;13.390;2022-08-07T17:15:15;1.90;;;1.45;;
19727;SDS011;10015;52.530;13.390;2022-08-07T17:20:13;2.53;;;1.60;;
19727;SDS011;10015;52.530;13.390;2022-08-07T17:25:31;3.28;;;2.13;;
19727;SDS011;10015;52.530;13.390;2022-08-07T17:28:09;2.35;;;1.70;;
19727;SDS011;10015;52.530;13.390;2022-08-07T17:30:41;2.70;;;1.40;;
19727;SDS011;10015;52.530;13.390;2022-08-07T17:33:29;2.85;;;1.48;;
19727;SDS011;10015;52.530;13.390;2022-08-07T17:36:02;3.28;;;1.80;;
19727;SDS011;10015;52.530;13.390;2022-08-07T17:41:30;4.15;;;1.50;;
19727;SDS011;10015;52.530;13.390;2022-08-07T17:44:27;4.13;;;1.75;;
19727;SDS011;10015;52.530;13.390;2022-08-07T17:47:21;3.33;;;1.85;;
19727;SDS011;10015;52.530;13.390;2022-08-07T17:50:24;2.38;;;1.30;;
19727;SDS011;10015;52.530;13.390;2022-08-07T17:53:06;3.95;;;1.80;;
19727;SDS011;10015;52.530;13.390;2022-08-07T17:55:37;4.90;;;1.50;;
19727;SDS011;10015;52.530;13.390;2022-08-07T17:58:41;2.03;;;1.33;;
19727;SDS011;10015;52.530;13.390;2022-08-07T18:01:18;4.47;;;1.40;;
19727;SDS011;10015;52.530;13.390;2022-08-07T18:09:29;4.30;;;1.65;;
19727;SDS011;10015;52.530;13.390;2022-08-07T18:12:07;10.32;;;1.90;;
19727;SDS011;10015;52.530;13.390;2022-08-07T18:14:44;2.78;;;1.45;;
19727;SDS011;10015;52.530;13.390;2022-08-07T18:17:26;3.40;;;1.30;;
19727;SDS011;10015;52.530;13.390;2022-08-07T18:20:05;3.72;;;1.45;;
19727;SDS011;10015;52.530;13.390;2022-08-07T18:25:25;5.43;;;2.15;;
19727;SDS011;10015;52.530;13.390;2022-08-07T18:30:38;3.80;;;1.80;;
19727;SDS011;10015;52.530;13.390;2022-08-07T18:36:38;2.70;;;1.80;;
19727;SDS011;10015;52.530;13.390;2022-08-07T18:42:15;3.08;;;1.55;;
19727;SDS011;10015;52.530;13.390;2022-08-07T18:48:07;2.28;;;1.50;;
19727;SDS011;10015;52.530;13.390;2022-08-07T18:50:47;2.88;;;1.35;;
19727;SDS011;10015;52.530;13.390;2022-08-07T18:56:34;3.80;;;1.80;;
19727;SDS011;10015;52.530;13.390;2022-08-07T19:04:59;3.42;;;1.63;;
19727;SDS011;10015;52.530;13.390;2022-08-07T19:10:12;2.17;;;1.50;;
19727;SDS011;10015;52.530;13.390;2022-08-07T19:13:32;3.97;;;1.75;;
19727;SDS011;10015;52.530;13.390;2022-08-07T19:16:03;2.40;;;1.42;;
19727;SDS011;10015;52.530;13.390;2022-08-07T19:18:57;4.75;;;1.50;;
19727;SDS011;10015;52.530;13.390;2022-08-07T19:24:27;3.03;;;1.50;;
19727;SDS011;10015;52.530;13.390;2022-08-07T19:27:05;2.15;;;1.60;;
19727;SDS011;10015;52.530;13.390;2022-08-07T19:29:35;2.38;;;1.60;;
19727;SDS011;10015;52.530;13.390;2022-08-07T19:32:06;3.70;;;1.63;;
19727;SDS011;10015;52.530;13.390;2022-08-07T19:34:33;3.58;;;1.60;;
19727;SDS011;10015;52.530;13.390;2022-08-07T19:37:01;3.70;;;1.60;;
19727;SDS011;10015;52.530;13.390;2022-08-07T19:39:29;6.82;;;1.98;;
19727;SDS011;10015;52.530;13.390;2022-08-07T19:41:57;2.60;;;1.55;;
19727;SDS011;10015;52.530;13.390;2022-08-07T19:44:26;3.92;;;1.92;;
19727;SDS011;10015;52.530;13.390;2022-08-07T19:47:04;4.00;;;2.13;;
19727;SDS011;10015;52.530;13.390;2022-08-07T19:49:32;5.82;;;2.10;;
19727;SDS011;10015;52.530;13.390;2022-08-07T19:52:06;3.83;;;2.15;;
19727;SDS011;10015;52.530;13.390;2022-08-07T19:54:43;5.75;;;2.20;;
19727;SDS011;10015;52.530;13.390;2022-08-07T19:57:21;5.20;;;2.65;;
19727;SDS011;10015;52.530;13.390;2022-08-07T20:00:18;3.17;;;2.00;;
19727;SDS011;10015;52.530;13.390;2022-08-07T20:03:05;4.53;;;1.70;;
19727;SDS011;10015;52.530;13.390;2022-08-07T20:05:36;2.75;;;1.88;;
19727;SDS011;10015;52.530;13.390;2022-08-07T20:08:10;2.35;;;2.03;;
19727;SDS011;10015;52.530;13.390;2022-08-07T20:11:01;3.60;;;1.85;;
19727;SDS011;10015;52.530;13.390;2022-08-07T20:13:31;6.88;;;2.20;;
19727;SDS011;10015;52.530;13.390;2022-08-07T20:16:10;4.82;;;2.30;;
19727;SDS011;10015;52.530;13.390;2022-08-07T20:18:42;3.85;;;1.95;;
19727;SDS011;10015;52.530;13.390;2022-08-07T20:21:10;2.85;;;1.90;;
19727;SDS011;10015;52.530;13.390;2022-08-07T20:23:41;3.20;;;1.77;;
19727;SDS011;10015;52.530;13.390;2022-08-07T20:26:11;3.45;;;2.50;;
19727;SDS011;10015;52.530;13.390;2022-08-07T20:28:38;5.43;;;2.78;;
19727;SDS011;10015;52.530;13.390;2022-08-07T20:31:14;3.75;;;2.20;;
19727;SDS011;10015;52.530;13.390;2022-08-07T20:33:45;4.07;;;2.55;;
19727;SDS011;10015;52.530;13.390;2022-08-07T20:36:15;3.05;;;2.15;;
19727;SDS011;10015;52.530;13.390;2022-08-07T20:38:47;3.03;;;2.22;;
19727;SDS011;10015;52.530;13.390;2022-08-07T20:41:23;4.55;;;2.30;;
19727;SDS011;10015;52.530;13.390;2022-08-07T20:43:52;5.25;;;2.42;;
19727;SDS011;10015;52.530;13.390;2022-08-07T20:46:23;4.90;;;2.33;;
19727;SDS011;10015;52.530;13.390;2022-08-07T20:48:53;4.50;;;2.53;;
19727;SDS011;10015;52.530;13.390;2022-08-07T20:51:23;4.82;;;2.20;;
19727;SDS011;10015;52.530;13.390;2022-08-07T20:53:51;3.97;;;2.00;;
19727;SDS011;10015;52.530;13.390;2022-08-07T20:56:19;6.80;;;2.28;;
19727;SDS011;10015;52.530;13.390;2022-08-07T20:58:47;6.05;;;2.25;;
19727;SDS011;10015;52.530;13.390;2022-08-07T21:01:15;3.25;;;2.40;;
19727;SDS011;10015;52.530;13.390;2022-08-07T21:03:44;5.97;;;2.50;;
19727;SDS011;10015;52.530;13.390;2022-08-07T21:06:18;4.35;;;2.15;;
19727;SDS011;10015;52.530;13.390;2022-08-07T21:08:56;5.22;;;3.10;;
19727;SDS011;10015;52.530;13.390;2022-08-07T21:11:27;4.22;;;2.25;;
19727;SDS011;10015;52.530;13.390;2022-08-07T21:13:55;2.42;;;1.88;;
19727;SDS011;10015;52.530;13.390;2022-08-07T21:16:25;4.22;;;2.25;;
19727;SDS011;10015;52.530;13.390;2022-08-07T21:18:55;3.50;;;2.20;;
19727;SDS011;10015;52.530;13.390;2022-08-07T21:21:23;5.03;;;2.30;;
19727;SDS011;10015;52.530;13.390;2022-08-07T21:24:10;4.50;;;2.20;;
19727;SDS011;10015;52.530;13.390;2022-08-07T21:29:38;3.30;;;2.05;;
19727;SDS011;10015;52.530;13.390;2022-08-07T21:35:30;4.32;;;2.55;;
19727;SDS011;10015;52.530;13.390;2022-08-07T21:38:03;3.53;;;2.58;;
19727;SDS011;10015;52.530;13.390;2022-08-07T21:40:44;4.75;;;2.25;;
19727;SDS011;10015;52.530;13.390;2022-08-07T21:43:19;3.58;;;1.98;;
19727;SDS011;10015;52.530;13.390;2022-08-07T21:45:52;3.03;;;2.13;;
19727;SDS011;10015;52.530;13.390;2022-08-07T21:48:40;3.42;;;2.08;;
19727;SDS011;10015;52.530;13.390;2022-08-07T21:51:15;5.22;;;2.10;;
19727;SDS011;10015;52.530;13.390;2022-08-07T21:54:00;5.60;;;2.25;;
19727;SDS011;10015;52.530;13.390;2022-08-07T21:59:33;6.22;;;2.70;;
19727;SDS011;10015;52.530;13.390;2022-08-07T22:02:18;4.00;;;2.15;;
19727;SDS011;10015;52.530;13.390;2022-08-07T22:04:54;4.60;;;2.40;;
19727;SDS011;10015;52.530;13.390;2022-08-07T22:07:24;3.08;;;2.38;;
19727;SDS011;10015;52.530;13.390;2022-08-07T22:09:56;3.63;;;2.20;;
19727;SDS011;10015;52.530;13.390;2022-08-07T22:12:33;3.40;;;2.30;;
19727;SDS011;10015;52.530;13.390;2022-08-07T22:20:26;4.80;;;2.30;;
19727;SDS011;10015;52.530;13.390;2022-08-07T22:23:21;4.38;;;2.40;;
19727;SDS011;10015;52.530;13.390;2022-08-07T22:26:22;5.10;;;2.60;;
19727;SDS011;10015;52.530;13.390;2022-08-07T22:28:54;4.03;;;2.40;;
19727;SDS011;10015;52.530;13.390;2022-08-07T22:31:36;5.68;;;2.28;;
19727;SDS011;10015;52.530;13.390;2022-08-07T22:34:18;3.53;;;2.30;;
19727;SDS011;10015;52.530;13.390;2022-08-07T22:37:01;4.00;;;2.25;;
19727;SDS011;10015;52.530;13.390;2022-08-07T22:42:22;4.22;;;2.70;;
19727;SDS011;10015;52.530;13.390;2022-08-07T22:44:54;4.55;;;2.33;;
19727;SDS011;10015;52.530;13.390;2022-08-07T22:50:28;4.63;;;2.70;;
19727;SDS011;10015;52.530;13.390;2022-08-07T22:53:17;4.03;;;2.55;;
19727;SDS011;10015;52.530;13.390;2022-08-07T22:56:03;3.65;;;2.25;;
19727;SDS011;10015;52.530;13.390;2022-08-07T22:58:44;5.45;;;2.33;;
